This is the latest recevied weather packets stored in our database for station/object KM4KMO-14. If no packets are shown the sender has not sent any weather packets the latest 1 day(s).
| Time | Temp. | Humidity | Pressure | Rain* | Wind** | Luminosity | Snow |
|---|---|---|---|---|---|---|---|
| 1778035334 | 21.67° C | 62% | 1009.1 hPa | 0 mm | - | - | - |
| 1778034434 | 21.67° C | 61% | 1008.6 hPa | 0 mm | - | - | - |
| 1778032635 | 21.67° C | 62% | 1008.2 hPa | 0 mm | - | - | - |
| 1778031735 | 21.11° C | 62% | 1008.1 hPa | 0 mm | - | - | - |
| 1778030835 | 21.11° C | 61% | 1008 hPa | 0 mm | - | - | - |
| 1778029935 | 21.11° C | 60% | 1007.9 hPa | 0 mm | - | - | - |
| 1778029035 | 21.11° C | 60% | 1007.7 hPa | 0 mm | - | - | - |
| 1778028135 | 21.11° C | 60% | 1007.7 hPa | 0 mm | - | - | - |
| 1778026335 | 21.11° C | 61% | 1008 hPa | 0 mm | - | - | - |
| 1778017336 | 21.67° C | 59% | 1007.9 hPa | 0 mm | - | - | - |
| 1778011936 | 26.11° C | 49% | 1009 hPa | 0 mm | - | - | - |
| 1778011036 | 27.22° C | 48% | 1009.2 hPa | 0 mm | - | - | - |
| 1778010136 | 26.67° C | 47% | 1009.1 hPa | 0 mm | - | - | - |
| 1778009236 | 26.11° C | 44% | 1009.4 hPa | 0 mm | - | - | - |
| 1778008339 | 26.11° C | 45% | 1009.6 hPa | 0 mm | - | - | - |
| 1778006536 | 26.11° C | 45% | 1009.8 hPa | 0 mm | - | - | - |
| 1778005636 | 26.11° C | 46% | 1009.9 hPa | 0 mm | - | - | - |
| 1778004739 | 26.11° C | 50% | 1010.4 hPa | 0 mm | - | - | - |
| 1778003836 | 25.56° C | 49% | 1010.3 hPa | 0 mm | - | - | - |
| 1778002936 | 25.56° C | 51% | 1010.4 hPa | 0 mm | - | - | - |
| 1777993937 | 21.11° C | 66% | 1012.1 hPa | 0 mm | - | - | - |
* Rain latest hour (hover to see other rain measurements)
** Current wind speed in m/s (hover to see current wind gust speed)